Time;durP1;ratioP1;P1;durP2;ratioP2;P2;SDS_P1;SDS_P2;PMS_P1;PMS_P2;Temp;Humidity;BMP_temperature;BMP_pressure;BME280_temperature;BME280_humidity;BME280_pressure;Samples;Min_cycle;Max_cycle;Signal;HPM_P1;HPM_P2
2022/02/14 00:00:29;;;;;;;78.22;51.95;;;9.60;93.80;;;;;;5114767;28;20058;-77
2022/02/14 00:03:33;;;;;;;88.25;54.88;;;9.70;93.70;;;;;;5114392;28;20050;-77
2022/02/14 00:06:37;;;;;;;88.20;56.10;;;9.60;93.60;;;;;;5115383;28;20371;-77
2022/02/14 00:09:41;;;;;;;73.97;48.67;;;9.70;93.50;;;;;;5115552;28;20046;-77
2022/02/14 00:12:45;;;;;;;79.82;50.08;;;9.90;93.40;;;;;;5115844;28;20054;-77
2022/02/14 00:15:52;;;;;;;79.47;50.83;;;9.90;93.00;;;;;;5115759;28;20383;-77
2022/02/14 00:18:57;;;;;;;71.15;47.17;;;9.90;93.00;;;;;;5114885;28;20434;-77
2022/02/14 00:22:02;;;;;;;76.88;47.95;;;9.90;92.80;;;;;;5115073;28;20051;-77
2022/02/14 00:25:07;;;;;;;70.10;46.55;;;9.90;92.80;;;;;;5115095;28;20047;-77
2022/02/14 00:28:12;;;;;;;69.85;46.72;;;9.80;93.00;;;;;;5114508;28;20379;-77
2022/02/14 00:31:16;;;;;;;71.13;46.28;;;9.70;93.30;;;;;;5113369;28;20494;-77
2022/02/14 00:34:20;;;;;;;72.82;45.13;;;9.60;93.50;;;;;;5114594;28;20043;-77
2022/02/14 00:37:24;;;;;;;75.75;45.85;;;9.50;93.90;;;;;;5114658;28;20046;-77
2022/02/14 00:40:28;;;;;;;72.22;44.25;;;9.40;94.00;;;;;;5114619;28;20416;-77
2022/02/14 00:43:32;;;;;;;68.68;41.80;;;9.30;94.30;;;;;;5114948;28;20054;-77
2022/02/14 00:46:36;;;;;;;69.78;42.33;;;9.40;94.10;;;;;;5114754;28;20046;-77
2022/02/14 00:49:40;;;;;;;68.63;40.47;;;9.50;93.90;;;;;;5113063;28;20050;-77
2022/02/14 00:52:44;;;;;;;65.43;40.78;;;9.50;93.90;;;;;;5101703;28;20418;-77
2022/02/14 00:55:48;;;;;;;65.82;41.83;;;9.60;94.00;;;;;;5114355;28;20043;-77
2022/02/14 00:58:54;;;;;;;68.13;41.60;;;9.60;94.00;;;;;;5114766;28;20054;-77
2022/02/14 01:01:59;;;;;;;72.75;41.58;;;9.60;93.90;;;;;;5114883;28;20046;-78
2022/02/14 01:05:05;;;;;;;66.82;41.17;;;9.70;94.20;;;;;;5112812;28;20050;-78
2022/02/14 01:08:11;;;;;;;64.68;40.60;;;9.60;94.60;;;;;;5113519;28;20613;-78
2022/02/14 01:11:16;;;;;;;68.75;40.20;;;9.60;94.80;;;;;;5113594;28;20051;-78
2022/02/14 01:14:20;;;;;;;64.90;38.20;;;9.60;95.20;;;;;;5113559;28;20042;-78
2022/02/14 01:17:25;;;;;;;68.57;41.08;;;9.60;95.80;;;;;;5113249;28;20050;-77
2022/02/14 01:20:29;;;;;;;62.15;38.58;;;9.70;95.90;;;;;;5113609;28;20054;-77
2022/02/14 01:23:34;;;;;;;64.50;39.10;;;9.70;96.10;;;;;;5113707;28;20062;-77
2022/02/14 01:26:38;;;;;;;64.53;41.42;;;9.70;96.50;;;;;;5112715;28;20510;-78
2022/02/14 01:29:42;;;;;;;68.97;41.80;;;9.70;96.70;;;;;;5112826;28;20047;-78
2022/02/14 01:32:46;;;;;;;60.53;38.53;;;9.70;97.30;;;;;;5112320;28;20047;-78
2022/02/14 01:35:50;;;;;;;60.55;38.60;;;9.70;97.80;;;;;;5114027;28;20042;-78
2022/02/14 01:38:54;;;;;;;54.35;35.92;;;9.80;98.60;;;;;;5113527;28;20051;-78
2022/02/14 01:41:59;;;;;;;61.13;36.28;;;9.90;98.30;;;;;;5112924;28;20383;-78
2022/02/14 01:45:04;;;;;;;55.50;36.20;;;10.00;98.80;;;;;;5113018;28;20387;-77
2022/02/14 01:48:09;;;;;;;58.47;37.33;;;10.00;98.40;;;;;;5111916;28;20509;-77
2022/02/14 01:51:13;;;;;;;53.58;36.28;;;10.00;98.90;;;;;;5112125;28;20051;-77
2022/02/14 01:54:17;;;;;;;49.55;35.03;;;10.00;99.50;;;;;;5112756;28;20050;-77
2022/02/14 01:57:22;;;;;;;50.53;33.55;;;10.10;99.60;;;;;;5111651;28;20043;-77
2022/02/14 02:00:25;;;;;;;35.17;25.27;;;10.10;99.80;;;;;;5112198;28;20427;-77
2022/02/14 02:03:29;;;;;;;40.15;27.90;;;10.20;99.90;;;;;;5111438;28;20399;-77
2022/02/14 02:06:34;;;;;;;40.63;28.60;;;10.40;99.90;;;;;;5112588;28;20047;-77
2022/02/14 02:09:38;;;;;;;51.60;32.72;;;10.40;99.90;;;;;;5110943;28;20494;-77
2022/02/14 02:12:56;;;;;;;43.42;32.58;;;10.30;99.90;;;;;;5111487;28;20059;-77
2022/02/14 02:16:00;;;;;;;46.53;32.75;;;10.30;99.90;;;;;;5111081;28;20039;-77
2022/02/14 02:19:06;;;;;;;44.92;32.03;;;10.20;99.90;;;;;;5111805;28;20070;-77
2022/02/14 02:22:10;;;;;;;48.20;33.42;;;10.30;99.90;;;;;;5111793;28;20502;-77
2022/02/14 02:25:16;;;;;;;54.92;37.85;;;10.30;99.90;;;;;;5111945;28;20440;-77
2022/02/14 02:28:20;;;;;;;54.83;37.20;;;10.40;99.90;;;;;;5112157;28;20074;-77
2022/02/14 02:31:24;;;;;;;46.58;30.55;;;10.40;99.90;;;;;;5111566;28;20054;-77
2022/02/14 02:34:28;;;;;;;37.80;24.67;;;10.50;99.90;;;;;;5112129;28;20066;-77
2022/02/14 02:37:33;;;;;;;35.47;25.13;;;10.40;99.90;;;;;;5111355;28;20043;-77
2022/02/14 02:40:37;;;;;;;35.50;23.88;;;10.40;99.80;;;;;;5111426;28;20070;-78
2022/02/14 02:43:41;;;;;;;32.03;21.90;;;10.40;99.90;;;;;;5111877;28;20046;-78
2022/02/14 02:46:46;;;;;;;32.38;20.48;;;10.30;99.30;;;;;;5112759;28;20054;-77
2022/02/14 02:49:51;;;;;;;32.33;21.73;;;10.20;99.20;;;;;;5111815;28;20062;-77
2022/02/14 02:52:55;;;;;;;30.35;21.30;;;10.20;99.40;;;;;;5111776;28;20034;-77
2022/02/14 02:56:03;;;;;;;33.10;20.50;;;10.30;99.80;;;;;;5112045;28;20055;-77
2022/02/14 02:59:08;;;;;;;29.92;21.35;;;10.40;99.40;;;;;;5111464;28;20402;-77
2022/02/14 03:02:12;;;;;;;30.00;20.23;;;10.40;99.20;;;;;;5114251;28;20406;-77
2022/02/14 03:05:17;;;;;;;28.70;21.20;;;10.40;99.30;;;;;;5115293;28;20046;-77
2022/02/14 03:08:20;;;;;;;33.33;22.50;;;10.50;99.60;;;;;;5115058;28;20039;-77
2022/02/14 03:11:25;;;;;;;31.42;21.23;;;10.60;99.70;;;;;;5115383;28;20054;-77
2022/02/14 03:14:29;;;;;;;29.55;20.48;;;10.60;99.20;;;;;;5115804;28;20046;-77
2022/02/14 03:17:33;;;;;;;31.35;20.67;;;10.60;99.30;;;;;;5115521;28;20046;-77
2022/02/14 03:20:36;;;;;;;26.75;19.85;;;10.60;99.70;;;;;;5115728;28;20062;-77
2022/02/14 03:23:41;;;;;;;27.20;19.92;;;10.60;99.30;;;;;;5115784;28;20046;-77
2022/02/14 03:26:45;;;;;;;27.02;19.17;;;10.60;99.40;;;;;;5115264;28;20046;-77
2022/02/14 03:29:49;;;;;;;32.90;21.02;;;10.70;99.10;;;;;;5114654;28;20042;-77
2022/02/14 03:32:53;;;;;;;30.13;22.20;;;10.80;99.00;;;;;;5114617;28;20051;-77
2022/02/14 03:35:57;;;;;;;28.13;20.77;;;10.70;99.20;;;;;;5114325;28;20058;-78
2022/02/14 03:39:01;;;;;;;29.52;20.25;;;10.80;99.40;;;;;;5115045;28;20066;-77
2022/02/14 03:42:05;;;;;;;29.88;21.00;;;10.80;99.10;;;;;;5115177;28;20506;-77
2022/02/14 03:45:09;;;;;;;31.13;21.60;;;10.80;98.80;;;;;;5114853;28;20047;-77
2022/02/14 03:48:14;;;;;;;31.48;21.35;;;10.60;99.00;;;;;;5114777;28;20066;-77
2022/02/14 03:51:18;;;;;;;29.52;22.15;;;10.70;99.60;;;;;;5115687;28;20054;-77
2022/02/14 03:54:22;;;;;;;32.58;22.00;;;10.80;99.10;;;;;;5115476;28;20046;-77
2022/02/14 03:57:27;;;;;;;31.90;21.35;;;10.70;99.20;;;;;;5113974;28;20046;-77
2022/02/14 04:00:32;;;;;;;27.80;21.38;;;10.70;99.50;;;;;;5114647;28;20506;-77
2022/02/14 04:03:36;;;;;;;31.98;22.80;;;10.60;99.40;;;;;;5113801;28;20058;-77
2022/02/14 04:06:39;;;;;;;34.75;22.40;;;10.60;99.60;;;;;;5114494;28;20275;-77
2022/02/14 04:09:43;;;;;;;32.45;23.73;;;10.60;99.80;;;;;;5114126;28;20047;-79
2022/02/14 04:12:47;;;;;;;34.28;23.40;;;10.50;99.60;;;;;;5113283;28;20113;-78
2022/02/14 04:15:52;;;;;;;33.70;23.90;;;10.50;99.90;;;;;;5113072;28;20063;-78
2022/02/14 04:18:57;;;;;;;30.70;23.40;;;10.50;99.90;;;;;;5112616;28;20059;-78
2022/02/14 04:22:01;;;;;;;32.78;23.45;;;10.60;99.90;;;;;;5113659;28;20042;-78
2022/02/14 04:25:05;;;;;;;37.25;25.00;;;10.50;99.90;;;;;;5113741;28;20066;-78
2022/02/14 04:28:09;;;;;;;34.85;23.65;;;10.50;99.90;;;;;;5113423;28;20042;-78
2022/02/14 04:31:13;;;;;;;33.28;24.08;;;10.50;99.90;;;;;;5113641;28;20034;-78
2022/02/14 04:34:20;;;;;;;33.60;24.63;;;10.50;99.90;;;;;;5113521;28;20050;-78
2022/02/14 04:37:25;;;;;;;34.30;24.15;;;10.40;99.80;;;;;;5113982;28;20506;-78
2022/02/14 04:40:31;;;;;;;32.83;24.35;;;10.40;99.90;;;;;;5113352;28;20399;-78
2022/02/14 04:43:36;;;;;;;36.90;25.60;;;10.40;99.90;;;;;;5100906;28;20039;-75
2022/02/14 04:46:41;;;;;;;33.42;23.70;;;10.30;99.90;;;;;;5113459;28;20058;-76
2022/02/14 04:49:45;;;;;;;34.47;24.77;;;10.40;99.90;;;;;;5112683;28;20066;-77
2022/02/14 04:52:49;;;;;;;34.60;24.55;;;10.40;99.80;;;;;;5114147;28;20042;-77
2022/02/14 04:55:53;;;;;;;34.30;25.08;;;10.30;99.90;;;;;;5114428;28;20039;-77
2022/02/14 04:58:57;;;;;;;34.83;25.80;;;10.30;99.90;;;;;;5114202;28;20051;-77
2022/02/14 05:02:02;;;;;;;37.05;25.45;;;10.20;99.80;;;;;;5115107;28;20490;-76
2022/02/14 05:05:06;;;;;;;41.25;30.48;;;10.20;99.90;;;;;;5114031;28;20529;-76
2022/02/14 05:08:10;;;;;;;37.45;27.95;;;10.20;99.90;;;;;;5114648;28;20039;-77
2022/02/14 05:11:15;;;;;;;33.58;26.23;;;10.20;99.90;;;;;;5114654;28;20138;-77
2022/02/14 05:14:20;;;;;;;37.25;27.15;;;10.30;99.90;;;;;;5113877;28;20042;-77
2022/02/14 05:17:24;;;;;;;38.72;26.90;;;10.20;99.90;;;;;;5113538;28;20046;-77
2022/02/14 05:20:28;;;;;;;33.40;26.13;;;10.20;99.90;;;;;;5113279;28;20058;-77
2022/02/14 05:23:33;;;;;;;38.10;27.90;;;10.20;99.90;;;;;;5111803;28;20054;-78
2022/02/14 05:26:37;;;;;;;37.90;27.92;;;10.20;99.90;;;;;;5113568;28;20068;-77
2022/02/14 05:29:42;;;;;;;33.53;26.10;;;10.10;99.90;;;;;;5112926;28;20046;-77
2022/02/14 05:32:46;;;;;;;38.30;27.65;;;10.10;99.90;;;;;;5112751;28;20047;-77
2022/02/14 05:35:50;;;;;;;42.00;27.85;;;10.10;99.90;;;;;;5112328;28;20042;-77
2022/02/14 05:38:54;;;;;;;44.45;28.83;;;10.10;99.90;;;;;;5113000;28;20209;-77
2022/02/14 05:41:59;;;;;;;40.13;27.88;;;10.00;99.90;;;;;;5112196;28;20391;-78
2022/02/14 05:45:04;;;;;;;36.75;27.17;;;10.00;99.90;;;;;;5113399;28;20038;-78
2022/02/14 05:48:08;;;;;;;39.55;27.42;;;10.10;99.90;;;;;;5113400;28;20043;-77
2022/02/14 05:51:15;;;;;;;43.25;28.52;;;10.10;99.90;;;;;;5113447;28;20071;-78
2022/02/14 05:54:19;;;;;;;41.97;29.95;;;10.10;99.90;;;;;;5113357;28;20038;-78
2022/02/14 05:57:23;;;;;;;40.63;29.88;;;10.10;99.90;;;;;;5114130;28;20050;-78
2022/02/14 06:00:27;;;;;;;41.42;28.05;;;10.10;99.90;;;;;;5115029;28;20169;-77
2022/02/14 06:03:31;;;;;;;44.58;30.08;;;10.10;99.90;;;;;;5100790;28;20038;-76
2022/02/14 06:06:35;;;;;;;45.70;28.80;;;10.20;99.90;;;;;;5113403;28;20141;-77
2022/02/14 06:09:39;;;;;;;43.80;30.48;;;10.20;99.90;;;;;;5113800;28;20039;-76
2022/02/14 06:12:43;;;;;;;43.55;30.02;;;10.10;99.90;;;;;;5113412;28;20055;-77
2022/02/14 06:15:47;;;;;;;54.67;32.05;;;10.10;99.90;;;;;;5113942;28;20062;-76
2022/02/14 06:18:51;;;;;;;45.47;31.83;;;10.10;99.90;;;;;;5114163;28;20062;-77
2022/02/14 06:21:55;;;;;;;41.58;30.77;;;10.10;99.90;;;;;;5114299;28;20062;-76
2022/02/14 06:25:00;;;;;;;43.08;30.40;;;10.10;99.90;;;;;;5115448;28;20478;-77
2022/02/14 06:28:05;;;;;;;43.45;30.10;;;10.10;99.90;;;;;;5115343;28;20482;-77
2022/02/14 06:31:10;;;;;;;40.28;29.55;;;10.10;99.90;;;;;;5114613;28;20043;-78
2022/02/14 06:34:14;;;;;;;44.90;32.10;;;10.10;99.90;;;;;;5114109;28;20047;-78
2022/02/14 06:37:18;;;;;;;40.58;29.73;;;10.10;99.90;;;;;;5121242;28;20383;-82
2022/02/14 06:40:27;;;;;;;43.15;30.58;;;10.10;99.90;;;;;;5121373;28;20506;-76
2022/02/14 06:43:31;;;;;;;43.72;30.20;;;10.20;99.90;;;;;;5121221;28;20055;-76
2022/02/14 06:46:35;;;;;;;40.63;29.92;;;10.30;99.90;;;;;;5120326;28;20051;-76
2022/02/14 06:49:39;;;;;;;42.45;29.60;;;10.30;99.90;;;;;;5118243;28;20533;-77
2022/02/14 06:52:44;;;;;;;41.35;29.42;;;10.40;99.90;;;;;;5118962;28;20054;-77
2022/02/14 06:55:49;;;;;;;39.20;27.85;;;10.50;99.60;;;;;;5118641;28;20055;-76
2022/02/14 06:58:53;;;;;;;43.55;29.58;;;10.70;99.70;;;;;;5117504;28;20055;-77
2022/02/14 07:01:58;;;;;;;37.72;26.52;;;10.90;99.50;;;;;;5117342;28;20058;-77
2022/02/14 07:05:04;;;;;;;42.00;29.33;;;11.10;99.50;;;;;;5119109;28;20050;-76
2022/02/14 07:08:12;;;;;;;44.53;29.08;;;11.20;98.80;;;;;;5118292;28;20395;-77
2022/02/14 07:11:15;;;;;;;41.92;29.63;;;11.40;98.70;;;;;;5117136;28;20046;-76
2022/02/14 07:14:20;;;;;;;45.92;31.35;;;11.50;98.50;;;;;;5117958;28;20403;-79
2022/02/14 07:17:24;;;;;;;39.95;28.17;;;11.50;98.60;;;;;;5116769;28;20042;-78
2022/02/14 07:20:30;;;;;;;36.38;28.38;;;11.60;98.60;;;;;;5117929;28;20058;-78
2022/02/14 07:23:34;;;;;;;37.83;26.70;;;11.40;98.60;;;;;;5118639;28;20047;-78
2022/02/14 07:26:39;;;;;;;37.70;27.75;;;11.30;99.10;;;;;;5118609;28;20050;-78
2022/02/14 07:29:44;;;;;;;39.17;27.20;;;11.30;99.10;;;;;;5119408;28;20042;-81
2022/02/14 07:32:48;;;;;;;35.00;27.90;;;11.40;99.50;;;;;;5118944;28;20137;-82
2022/02/14 07:35:53;;;;;;;38.13;28.35;;;11.40;99.50;;;;;;5119283;28;20058;-79
2022/02/14 07:38:57;;;;;;;39.38;27.83;;;11.50;99.50;;;;;;5116645;28;20042;-78
2022/02/14 07:42:02;;;;;;;36.38;26.92;;;11.60;99.70;;;;;;5118100;28;20050;-79
2022/02/14 07:45:09;;;;;;;44.38;27.83;;;11.70;99.60;;;;;;5116546;28;20047;-76
2022/02/14 07:48:46;;;;;;;38.95;29.50;;;11.80;99.20;;;;;;5114475;28;20038;-74
2022/02/14 07:51:50;;;;;;;36.08;27.48;;;11.90;99.20;;;;;;5104830;28;20055;-77
2022/02/14 07:54:55;;;;;;;35.08;24.25;;;11.90;99.40;;;;;;5116330;28;20039;-74
2022/02/14 07:58:01;;;;;;;44.65;28.67;;;12.00;99.50;;;;;;5116365;28;20042;-76
2022/02/14 08:01:06;;;;;;;42.13;29.25;;;12.00;99.30;;;;;;5115452;28;20050;-77
2022/02/14 08:04:10;;;;;;;39.92;28.33;;;12.00;99.30;;;;;;5120482;28;20062;-78
2022/02/14 08:07:15;;;;;;;37.42;26.02;;;11.90;99.70;;;;;;5115074;28;20054;-76
2022/02/14 08:10:19;;;;;;;37.63;26.58;;;12.00;99.70;;;;;;5118174;28;20489;-77
2022/02/14 08:13:25;;;;;;;38.40;26.67;;;12.00;99.80;;;;;;5119308;28;20042;-79
2022/02/14 08:16:34;;;;;;;37.72;26.50;;;12.10;99.80;;;;;;5118899;28;20043;-76
2022/02/14 08:19:39;;;;;;;43.28;28.45;;;12.20;99.80;;;;;;5118484;28;20059;-76
2022/02/14 08:22:44;;;;;;;35.72;26.52;;;12.20;99.50;;;;;;5116107;28;20050;-74
2022/02/14 08:25:49;;;;;;;34.35;25.60;;;12.10;99.60;;;;;;5115459;28;20043;-82
2022/02/14 08:28:54;;;;;;;37.92;28.88;;;12.20;99.80;;;;;;5115476;28;20046;-74
2022/02/14 08:31:58;;;;;;;39.70;29.65;;;12.30;99.90;;;;;;5116055;28;20039;-75
2022/02/14 08:35:02;;;;;;;38.38;28.98;;;12.40;99.80;;;;;;5116160;28;20051;-76
2022/02/14 08:38:08;;;;;;;37.15;28.00;;;12.40;99.80;;;;;;5116182;28;20046;-76
2022/02/14 08:41:12;;;;;;;35.83;25.10;;;12.50;99.80;;;;;;5115488;28;20078;-74
2022/02/14 08:44:16;;;;;;;36.25;27.65;;;12.80;99.90;;;;;;5114611;28;20058;-75
2022/02/14 08:47:20;;;;;;;43.60;27.25;;;13.10;99.50;;;;;;5114669;28;20054;-77
2022/02/14 08:50:24;;;;;;;27.80;21.90;;;13.30;98.60;;;;;;5115897;28;20074;-77
2022/02/14 08:53:31;;;;;;;26.85;20.40;;;13.40;98.50;;;;;;5114545;28;20055;-77
2022/02/14 08:56:35;;;;;;;28.45;20.83;;;13.40;98.50;;;;;;5115136;28;20039;-75
2022/02/14 08:59:39;;;;;;;30.48;22.33;;;13.40;98.40;;;;;;5115693;28;20502;-76
2022/02/14 09:02:43;;;;;;;35.25;26.27;;;13.40;98.30;;;;;;5113613;28;20043;-72
2022/02/14 09:05:48;;;;;;;34.83;25.50;;;13.30;98.30;;;;;;5113699;28;20046;-71
2022/02/14 09:08:52;;;;;;;13.60;9.07;;;13.30;98.40;;;;;;5113505;28;20490;-78
2022/02/14 09:12:01;;;;;;;10.18;3.88;;;13.20;97.90;;;;;;5116142;28;20034;-76
2022/02/14 09:15:06;;;;;;;9.85;2.63;;;13.10;96.50;;;;;;5117634;28;20501;-80
2022/02/14 09:18:11;;;;;;;11.73;3.05;;;13.00;96.00;;;;;;5117045;28;20498;-79
2022/02/14 09:21:15;;;;;;;4.75;2.22;;;13.00;95.90;;;;;;5115079;28;20133;-77
2022/02/14 09:24:22;;;;;;;3.20;2.00;;;13.00;95.90;;;;;;5115393;28;20034;-76
2022/02/14 09:27:26;;;;;;;10.35;2.20;;;13.00;95.80;;;;;;5115157;28;20094;-84
2022/02/14 09:30:31;;;;;;;2.60;1.77;;;12.90;95.70;;;;;;5115200;28;20525;-76
2022/02/14 09:33:35;;;;;;;6.57;2.50;;;13.00;95.60;;;;;;5114966;28;20050;-79
2022/02/14 09:36:39;;;;;;;6.18;2.97;;;13.00;95.70;;;;;;5114845;28;20047;-80
2022/02/14 09:39:45;;;;;;;3.15;2.20;;;13.00;95.90;;;;;;5115648;28;20058;-78
2022/02/14 09:42:51;;;;;;;6.70;2.17;;;13.00;95.50;;;;;;5115409;28;20046;-76
2022/02/14 09:45:55;;;;;;;4.32;2.55;;;13.00;95.30;;;;;;5115415;28;20502;-77
2022/02/14 09:49:02;;;;;;;8.40;3.90;;;13.00;95.20;;;;;;5115224;28;20055;-78
2022/02/14 09:52:07;;;;;;;8.18;3.30;;;13.00;95.10;;;;;;5114358;28;20039;-79
2022/02/14 09:55:11;;;;;;;4.97;4.13;;;13.10;94.90;;;;;;5115794;28;20042;-76
2022/02/14 09:58:15;;;;;;;10.82;5.53;;;13.10;95.10;;;;;;5114525;28;20043;-81
2022/02/14 10:01:18;;;;;;;10.73;5.32;;;13.10;95.30;;;;;;5115179;28;20058;-76
2022/02/14 10:04:24;;;;;;;9.88;5.65;;;13.20;95.40;;;;;;5114658;28;20501;-78
2022/02/14 10:07:46;;;;;;;10.50;5.05;;;13.20;95.40;;;;;;5114349;28;20047;-78
2022/02/14 10:10:52;;;;;;;10.15;5.75;;;13.20;95.40;;;;;;5119392;28;20510;-75
2022/02/14 10:14:13;;;;;;;9.40;5.50;;;13.30;95.50;;;;;;5119750;28;20391;-75
2022/02/14 10:17:22;;;;;;;11.32;4.75;;;13.30;95.60;;;;;;5108746;28;20125;-78
2022/02/14 10:20:28;;;;;;;10.38;5.35;;;13.30;95.70;;;;;;5121341;28;20050;-78
2022/02/14 10:23:32;;;;;;;8.98;5.63;;;13.40;95.70;;;;;;5121378;28;20039;-79
2022/02/14 10:26:38;;;;;;;11.05;5.95;;;13.40;95.80;;;;;;5120611;28;20047;-77
2022/02/14 10:29:43;;;;;;;7.72;4.97;;;13.40;95.80;;;;;;5121543;28;20051;-80
2022/02/14 10:32:53;;;;;;;9.52;6.47;;;13.40;95.90;;;;;;5121828;28;20038;-78
2022/02/14 10:35:58;;;;;;;8.30;6.32;;;13.40;95.80;;;;;;5120528;28;20047;-82
2022/02/14 10:39:17;;;;;;;11.38;7.07;;;13.50;95.90;;;;;;5120929;28;20046;-81
2022/02/14 10:42:23;;;;;;;7.88;6.53;;;13.40;95.90;;;;;;5121194;28;20051;-79
2022/02/14 10:45:29;;;;;;;9.65;6.47;;;13.40;96.00;;;;;;5122612;28;20042;-79
2022/02/14 10:48:58;;;;;;;12.60;6.50;;;13.40;95.90;;;;;;5120474;28;20039;-82
2022/02/14 10:52:07;;;;;;;12.52;7.15;;;13.40;95.80;;;;;;5110734;28;20042;-80
2022/02/14 10:55:15;;;;;;;12.93;7.82;;;13.50;95.20;;;;;;5120451;28;20042;-76
2022/02/14 10:58:27;;;;;;;13.65;6.93;;;13.60;95.40;;;;;;5119677;28;20042;-76
2022/02/14 11:01:34;;;;;;;12.05;6.10;;;13.60;95.70;;;;;;5119938;27;20048;-75
2022/02/14 11:04:38;;;;;;;12.55;4.78;;;13.60;95.60;;;;;;5119788;28;20046;-76
2022/02/14 11:07:42;;;;;;;15.55;4.68;;;13.70;94.90;;;;;;5119279;28;20051;-75
2022/02/14 11:10:50;;;;;;;10.32;4.70;;;13.70;94.80;;;;;;5118858;28;20520;-75
2022/02/14 11:13:58;;;;;;;9.68;4.28;;;13.80;94.70;;;;;;5120701;28;20059;-76
2022/02/14 11:17:03;;;;;;;11.35;4.40;;;13.90;94.50;;;;;;5120505;28;20533;-76
2022/02/14 11:20:08;;;;;;;8.13;3.65;;;14.00;94.40;;;;;;5119419;28;20050;-77
2022/02/14 11:23:15;;;;;;;13.73;4.60;;;14.00;93.60;;;;;;5114263;28;20482;-76
2022/02/14 11:26:36;;;;;;;16.42;4.63;;;14.10;93.80;;;;;;5117094;28;20050;-77
2022/02/14 11:30:02;;;;;;;14.93;5.38;;;14.10;93.50;;;;;;5116791;28;20045;-77
2022/02/14 11:33:13;;;;;;;12.65;4.10;;;14.20;93.60;;;;;;5117629;28;20038;-78
2022/02/14 11:36:19;;;;;;;14.63;3.70;;;14.30;93.90;;;;;;5118292;28;20043;-75
2022/02/14 11:39:29;;;;;;;11.73;4.82;;;14.30;94.00;;;;;;5115440;28;20042;-76
2022/02/14 11:43:20;;;;;;;13.90;7.90;;;14.40;94.00;;;;;;5116643;28;20113;-76
2022/02/14 11:46:28;;;;;;;11.00;8.05;;;14.40;94.00;;;;;;5116137;28;20047;-76
2022/02/14 11:49:38;;;;;;;12.43;7.75;;;14.40;94.00;;;;;;5117325;28;20058;-74
2022/02/14 11:52:44;;;;;;;10.52;7.38;;;14.30;94.50;;;;;;5117502;28;20051;-76
2022/02/14 11:55:48;;;;;;;14.20;7.10;;;14.40;94.70;;;;;;5117629;28;20050;-76
2022/02/14 11:59:15;;;;;;;13.77;7.68;;;14.40;94.60;;;;;;5104951;28;20054;-77
2022/02/14 12:02:27;;;;;;;10.40;7.90;;;14.30;94.40;;;;;;5116406;28;20052;-76
2022/02/14 12:05:40;;;;;;;;;;;14.40;94.70;;;;;;5117801;28;20042;-78
2022/02/14 12:09:01;;;;;;;11.68;7.55;;;14.40;94.50;;;;;;5117633;28;19930;-75
2022/02/14 12:12:05;;;;;;;14.25;9.68;;;14.40;94.60;;;;;;5116054;28;20038;-75
2022/02/14 12:22:05;;;;;;;18.08;11.82;;;14.40;94.40;;;;;;5115340;28;20693;-75
2022/02/14 12:25:09;;;;;;;15.13;10.88;;;14.40;94.90;;;;;;5114930;28;20110;-74
2022/02/14 12:28:14;;;;;;;15.20;10.20;;;14.30;95.10;;;;;;5117366;28;20050;-79
2022/02/14 12:31:19;;;;;;;17.52;12.00;;;14.30;95.20;;;;;;5118532;28;20042;-79
2022/02/14 12:34:25;;;;;;;19.25;12.98;;;14.40;94.80;;;;;;5118372;28;20050;-78
2022/02/14 12:37:29;;;;;;;20.25;14.43;;;14.30;95.20;;;;;;5117376;28;20043;-78
2022/02/14 12:40:52;;;;;;;21.75;13.95;;;14.40;95.20;;;;;;5116923;28;20059;-78
2022/02/14 12:44:00;;;;;;;19.27;14.48;;;14.40;95.20;;;;;;5116756;28;20038;-77
2022/02/14 12:47:04;;;;;;;19.58;14.18;;;14.40;95.20;;;;;;5116433;28;20050;-77
2022/02/14 12:50:11;;;;;;;15.95;11.93;;;14.50;95.20;;;;;;5115113;28;20055;-76
2022/02/14 12:53:15;;;;;;;17.98;11.88;;;14.50;95.00;;;;;;5115580;28;20050;-75
2022/02/14 12:56:21;;;;;;;20.45;13.38;;;14.60;94.80;;;;;;5115495;28;20050;-77
2022/02/14 12:59:33;;;;;;;17.25;12.13;;;14.60;94.70;;;;;;5115030;28;20386;-76
2022/02/14 13:02:47;;;;;;;17.90;12.75;;;14.60;94.70;;;;;;5115023;28;20071;-77
2022/02/14 13:05:52;;;;;;;17.17;12.18;;;14.60;94.60;;;;;;5115889;28;20042;-78
2022/02/14 13:08:56;;;;;;;19.23;13.43;;;14.60;94.60;;;;;;5117948;28;20050;-79
2022/02/14 13:12:11;;;;;;;18.75;13.63;;;14.60;94.60;;;;;;5116141;28;20046;-76
2022/02/14 13:15:16;;;;;;;15.38;12.00;;;14.50;94.50;;;;;;5115277;28;20502;-75
2022/02/14 13:18:20;;;;;;;16.38;8.38;;;14.50;94.60;;;;;;5112358;28;20426;-75
2022/02/14 13:21:24;;;;;;;15.50;5.80;;;14.60;94.90;;;;;;5114175;28;20050;-75
2022/02/14 13:24:36;;;;;;;9.13;4.50;;;14.60;94.70;;;;;;5113790;28;20039;-75
2022/02/14 13:27:42;;;;;;;11.88;5.22;;;14.60;94.70;;;;;;5114455;28;20046;-75
2022/02/14 13:30:47;;;;;;;19.02;6.45;;;14.60;94.70;;;;;;5114100;28;20042;-75
2022/02/14 13:33:53;;;;;;;14.50;6.13;;;14.70;94.80;;;;;;5114054;28;20044;-78
2022/02/14 13:36:59;;;;;;;24.10;7.05;;;14.70;94.90;;;;;;5116817;28;20046;-83
2022/02/14 13:40:36;;;;;;;10.45;5.57;;;14.80;95.10;;;;;;5117699;28;20043;-78
2022/02/14 13:43:42;;;;;;;41.92;8.57;;;14.80;95.00;;;;;;5115789;28;20046;-81
2022/02/14 13:46:46;;;;;;;13.90;7.30;;;14.80;95.00;;;;;;5115523;28;20058;-78
2022/02/14 13:49:51;;;;;;;23.75;8.10;;;14.90;94.80;;;;;;5113781;28;20050;-77
2022/02/14 13:52:58;;;;;;;13.55;8.38;;;14.90;94.80;;;;;;5114751;28;20039;-75
2022/02/14 13:56:08;;;;;;;12.52;6.22;;;14.90;94.70;;;;;;5114320;28;20046;-76
2022/02/14 13:59:16;;;;;;;12.70;6.93;;;14.90;94.70;;;;;;5114424;28;20042;-77
2022/02/14 14:02:20;;;;;;;20.90;7.22;;;14.90;94.70;;;;;;5114995;28;20051;-76
2022/02/14 14:05:24;;;;;;;24.55;6.15;;;15.00;94.60;;;;;;5114101;28;20498;-75
2022/02/14 14:08:39;;;;;;;19.77;5.82;;;15.00;94.20;;;;;;5114641;28;20051;-74
2022/02/14 14:11:44;;;;;;;17.23;5.15;;;15.10;93.90;;;;;;5113057;28;20047;-75
2022/02/14 14:14:57;;;;;;;16.98;5.30;;;15.10;93.70;;;;;;5114274;28;20570;-75
2022/02/14 14:18:01;;;;;;;21.90;5.15;;;15.10;93.30;;;;;;5115831;28;20050;-76
2022/02/14 14:21:12;;;;;;;46.70;6.70;;;15.10;92.50;;;;;;5114402;28;20059;-75
2022/02/14 14:24:15;;;;;;;24.70;5.43;;;15.10;92.20;;;;;;5113838;28;20058;-76
2022/02/14 14:27:20;;;;;;;18.63;4.43;;;15.20;92.50;;;;;;5112411;28;20051;-75
2022/02/14 14:30:24;;;;;;;10.13;3.80;;;15.20;92.10;;;;;;5113997;28;20046;-76
2022/02/14 14:33:30;;;;;;;17.70;3.70;;;15.20;91.50;;;;;;5113570;28;20592;-77
2022/02/14 14:36:34;;;;;;;13.30;3.92;;;15.20;91.30;;;;;;5113954;28;20533;-75
2022/02/14 14:39:38;;;;;;;45.35;6.95;;;15.20;91.20;;;;;;5112891;28;20046;-77
2022/02/14 14:42:43;;;;;;;11.45;3.20;;;15.20;91.30;;;;;;5115195;28;20046;-79
2022/02/14 14:45:47;;;;;;;8.30;3.40;;;15.20;91.10;;;;;;5115505;28;20066;-78
2022/02/14 14:48:51;;;;;;;20.25;4.43;;;15.20;91.00;;;;;;5116096;28;20051;-81
2022/02/14 14:51:55;;;;;;;16.25;4.00;;;15.20;91.00;;;;;;5118447;28;20425;-84
2022/02/14 14:54:59;;;;;;;15.15;3.90;;;15.20;91.10;;;;;;5118863;28;20061;-86
2022/02/14 14:58:04;;;;;;;15.57;5.00;;;15.20;91.20;;;;;;5119807;28;20046;-84
2022/02/14 15:01:08;;;;;;;8.18;3.67;;;15.20;91.70;;;;;;5121774;28;20055;-89
2022/02/14 15:04:12;;;;;;;14.35;4.63;;;15.20;91.20;;;;;;5123776;28;20038;-82
2022/02/14 15:07:16;;;;;;;15.05;3.92;;;15.20;90.90;;;;;;5120006;28;20046;-79
2022/02/14 15:10:21;;;;;;;12.25;3.88;;;15.20;91.10;;;;;;5116758;28;20047;-78
2022/02/14 15:13:25;;;;;;;7.93;3.53;;;15.10;91.50;;;;;;5122284;28;20043;-76
2022/02/14 15:16:30;;;;;;;16.85;3.95;;;15.10;92.20;;;;;;5116509;28;20046;-75
2022/02/14 15:19:37;;;;;;;21.02;4.03;;;15.10;92.30;;;;;;5116373;28;20403;-77
2022/02/14 15:22:41;;;;;;;37.53;4.95;;;15.10;92.20;;;;;;5117055;28;20047;-76
2022/02/14 15:25:45;;;;;;;11.32;4.00;;;15.10;92.40;;;;;;5117527;28;20050;-75
2022/02/14 15:28:51;;;;;;;7.47;3.35;;;15.00;92.50;;;;;;5115765;28;20051;-78
2022/02/14 15:31:55;;;;;;;14.00;3.42;;;15.00;92.10;;;;;;5119088;28;20047;-80
2022/02/14 15:35:02;;;;;;;6.93;4.43;;;15.00;92.10;;;;;;5124061;28;20042;-87
2022/02/14 15:38:09;;;;;;;17.40;6.15;;;15.00;92.20;;;;;;5123834;28;20046;-80
2022/02/14 15:41:13;;;;;;;12.80;3.60;;;15.00;92.50;;;;;;5121435;28;20054;-87
2022/02/14 15:44:19;;;;;;;13.00;3.70;;;15.00;92.60;;;;;;5123671;28;20046;-84
2022/02/14 15:47:23;;;;;;;13.55;5.13;;;14.90;92.70;;;;;;5120913;28;20074;-83
2022/02/14 15:50:29;;;;;;;9.13;4.00;;;14.80;92.90;;;;;;5118936;28;20062;-87
2022/02/14 15:53:35;;;;;;;15.20;4.40;;;14.80;92.90;;;;;;5118055;28;20399;-84
2022/02/14 15:56:40;;;;;;;16.60;5.15;;;14.70;93.00;;;;;;5120641;28;20043;-80